Time;durP1;ratioP1;P1;durP2;ratioP2;P2;SDS_P1;SDS_P2;PMS_P1;PMS_P2;Temp;Humidity;BMP_temperature;BMP_pressure;BME280_temperature;BME280_humidity;BME280_pressure;Samples;Min_cycle;Max_cycle;Signal;HPM_P1;HPM_P2
2022/06/13 00:00:08;;;;;;;11.57;5.53;;;13.70;99.90;;;;;;5011345;28;20044;-70
2022/06/13 00:02:35;;;;;;;12.18;4.00;;;13.90;99.90;;;;;;5007161;28;20041;-70
2022/06/13 00:05:02;;;;;;;11.75;3.92;;;13.80;99.90;;;;;;5031118;28;20067;-70
2022/06/13 00:07:28;;;;;;;11.80;5.00;;;;;;;;;;5055425;28;20041;-70
2022/06/13 00:09:54;;;;;;;14.02;3.90;;;;;;;;;;5036992;28;20451;-70
2022/06/13 00:18:38;;;;;;;11.48;3.88;;;;;;;;;;5182267;22;20099;-70
2022/06/13 00:21:09;;;;;;;8.27;3.90;;;;;;;;;;5048811;28;20033;-70
2022/06/13 00:23:36;;;;;;;10.82;4.57;;;13.80;99.90;;;;;;5021292;28;20035;-70
2022/06/13 00:26:02;;;;;;;14.48;5.18;;;13.90;99.90;;;;;;5037346;28;20116;-70
2022/06/13 00:28:28;;;;;;;11.65;5.13;;;13.90;99.90;;;;;;5038098;28;20040;-70
2022/06/13 00:30:54;;;;;;;13.20;5.05;;;;;;;;;;5038160;28;20044;-70
2022/06/13 00:33:19;;;;;;;12.43;5.55;;;13.80;99.90;;;;;;5038478;28;20410;-70
2022/06/13 00:35:45;;;;;;;13.25;4.45;;;13.70;99.90;;;;;;5038065;28;20044;-70
2022/06/13 00:38:11;;;;;;;14.43;5.15;;;;;;;;;;5023892;28;20045;-70
2022/06/13 00:40:37;;;;;;;14.55;4.60;;;;;;;;;;5037909;28;20040;-70
2022/06/13 00:43:05;;;;;;;13.82;5.03;;;13.80;99.90;;;;;;5055233;28;20119;-70
2022/06/13 00:45:35;;;;;;;10.90;5.00;;;13.70;99.90;;;;;;5053986;28;20534;-70
2022/06/13 00:48:02;;;;;;;16.88;5.25;;;13.90;99.90;;;;;;5021817;28;20414;-70
2022/06/13 00:51:00;;;;;;;15.23;4.90;;;13.80;99.90;;;;;;5037240;28;20405;-70
2022/06/13 00:53:33;;;;;;;16.02;5.53;;;13.80;99.90;;;;;;4971010;28;20045;-70
2022/06/13 00:59:29;;;;;;;13.82;4.57;;;13.70;99.90;;;;;;5043425;28;20559;-70
2022/06/13 01:01:55;;;;;;;15.85;5.55;;;;;;;;;;5054880;28;20115;-70
2022/06/13 01:04:21;;;;;;;10.18;6.22;;;;;;;;;;5036385;28;20037;-70
2022/06/13 01:06:50;;;;;;;16.30;5.90;;;13.90;99.90;;;;;;5019769;28;20048;-69
2022/06/13 01:09:18;;;;;;;14.68;5.13;;;13.80;99.90;;;;;;5019564;28;20116;-69
2022/06/13 01:11:51;;;;;;;10.48;5.15;;;13.90;99.90;;;;;;5035991;28;20068;-69
2022/06/13 01:14:17;;;;;;;17.08;6.13;;;;;;;;;;5019563;28;20502;-69
2022/06/13 01:17:07;;;;;;;13.30;5.57;;;13.90;99.90;;;;;;5035212;28;20094;-69
2022/06/13 01:19:59;;;;;;;14.23;4.72;;;13.80;99.90;;;;;;5036049;28;20049;-69
2022/06/13 01:22:25;;;;;;;12.65;5.30;;;;;;;;;;5036219;28;20044;-69
2022/06/13 01:25:03;;;;;;;14.75;5.45;;;13.90;99.90;;;;;;5035819;28;20060;-69
2022/06/13 01:27:50;;;;;;;14.25;5.85;;;13.60;99.90;;;;;;5035398;28;20045;-68
2022/06/13 01:30:48;;;;;;;14.85;5.00;;;13.90;99.90;;;;;;5035680;28;20127;-68
2022/06/13 01:33:39;;;;;;;14.02;4.55;;;13.80;99.90;;;;;;5034935;28;20579;-69
2022/06/13 01:36:18;;;;;;;13.45;5.97;;;13.70;99.90;;;;;;5018892;28;20099;-69
2022/06/13 01:38:56;;;;;;;11.50;5.50;;;13.90;99.90;;;;;;5035947;28;20033;-69
2022/06/13 01:41:32;;;;;;;15.15;5.30;;;13.70;99.90;;;;;;5019581;28;20055;-69
2022/06/13 01:44:16;;;;;;;11.68;5.03;;;13.90;99.90;;;;;;5019805;28;20391;-69
2022/06/13 01:47:12;;;;;;;16.63;6.15;;;13.80;99.90;;;;;;5035209;28;20112;-69
2022/06/13 01:49:56;;;;;;;14.75;5.88;;;13.80;99.90;;;;;;5035645;28;20048;-69
2022/06/13 01:52:25;;;;;;;12.55;6.05;;;13.80;99.90;;;;;;5019527;28;20120;-69
2022/06/13 01:55:18;;;;;;;11.93;5.05;;;13.80;99.90;;;;;;5035221;28;20434;-68
2022/06/13 01:57:52;;;;;;;12.38;5.97;;;13.60;99.90;;;;;;5035563;28;20041;-68
2022/06/13 02:00:27;;;;;;;14.90;6.75;;;13.80;99.90;;;;;;5035483;28;20491;-69
2022/06/13 02:02:53;;;;;;;20.52;6.38;;;13.80;99.90;;;;;;5035942;28;20235;-69
2022/06/13 02:05:21;;;;;;;18.80;7.20;;;13.90;99.90;;;;;;5019222;28;20041;-69
2022/06/13 02:07:55;;;;;;;20.13;6.57;;;13.80;99.90;;;;;;5053719;28;20144;-68
2022/06/13 02:10:29;;;;;;;15.65;5.70;;;13.80;99.90;;;;;;5036145;28;20036;-69
2022/06/13 02:13:06;;;;;;;15.77;5.50;;;13.80;99.90;;;;;;5035986;28;20423;-68
2022/06/13 02:15:45;;;;;;;17.80;5.57;;;13.80;99.90;;;;;;5035164;28;20059;-69
2022/06/13 02:18:22;;;;;;;18.90;6.97;;;13.80;99.90;;;;;;5007257;28;20080;-69
2022/06/13 02:20:51;;;;;;;18.60;6.45;;;13.70;99.90;;;;;;5019876;28;20091;-69
2022/06/13 02:23:24;;;;;;;15.70;7.63;;;13.80;99.90;;;;;;5018951;28;20044;-68
2022/06/13 02:26:02;;;;;;;18.15;6.53;;;13.80;99.90;;;;;;5036189;28;20546;-68
2022/06/13 02:28:38;;;;;;;15.30;6.38;;;13.70;99.90;;;;;;5019728;28;20053;-69
2022/06/13 02:31:11;;;;;;;13.48;5.55;;;13.70;99.90;;;;;;5018774;28;20449;-69
2022/06/13 02:33:55;;;;;;;13.00;6.63;;;13.70;99.90;;;;;;5035686;28;20154;-69
2022/06/13 02:36:32;;;;;;;13.05;6.53;;;13.70;99.90;;;;;;5035389;28;20041;-69
2022/06/13 02:39:04;;;;;;;16.65;6.05;;;13.70;99.90;;;;;;5035499;28;20375;-68
2022/06/13 02:41:42;;;;;;;15.13;7.35;;;13.80;99.90;;;;;;5035540;28;20044;-68
2022/06/13 02:44:30;;;;;;;13.45;6.38;;;13.80;99.90;;;;;;5035921;28;20041;-69
2022/06/13 02:47:03;;;;;;;17.67;6.85;;;13.80;99.90;;;;;;5010192;28;20041;-68
2022/06/13 02:49:36;;;;;;;16.40;7.10;;;13.80;99.90;;;;;;5035069;28;20041;-68
2022/06/13 02:52:27;;;;;;;16.50;7.50;;;13.70;99.90;;;;;;5021810;28;20044;-69
2022/06/13 02:54:56;;;;;;;15.70;6.78;;;13.80;99.90;;;;;;5053278;28;20037;-68
2022/06/13 02:57:25;;;;;;;16.45;6.75;;;13.70;99.90;;;;;;5034713;28;20388;-68
2022/06/13 03:00:03;;;;;;;14.80;6.50;;;13.70;99.90;;;;;;5034966;28;20044;-69
2022/06/13 03:02:54;;;;;;;14.07;6.70;;;13.70;99.90;;;;;;5018944;28;20055;-68
2022/06/13 03:05:41;;;;;;;15.50;7.13;;;13.80;99.90;;;;;;4996367;28;20099;-68
2022/06/13 03:08:19;;;;;;;16.75;6.57;;;13.80;99.90;;;;;;5053082;28;20041;-68
2022/06/13 03:10:57;;;;;;;15.73;6.53;;;13.90;99.90;;;;;;5025089;28;20084;-68
2022/06/13 03:13:47;;;;;;;20.05;6.95;;;13.80;99.90;;;;;;5038750;28;20080;-68
2022/06/13 03:16:31;;;;;;;13.70;6.00;;;13.80;99.90;;;;;;5022068;28;20037;-68
2022/06/13 03:22:48;;;;;;;;;;;14.10;99.90;;;;;;5054641;28;20100;-69
2022/06/13 03:25:25;;;;;;;17.45;7.25;;;13.80;99.90;;;;;;5038157;28;19917;-70
2022/06/13 03:28:04;;;;;;;13.63;6.38;;;13.80;99.90;;;;;;5056803;28;20068;-70
2022/06/13 03:30:32;;;;;;;16.08;5.60;;;13.80;99.90;;;;;;5022335;28;20052;-70
2022/06/13 03:35:50;;;;;;;17.10;6.45;;;13.90;99.90;;;;;;5038010;28;20461;-70
2022/06/13 03:38:22;;;;;;;18.20;6.28;;;13.80;99.90;;;;;;5038015;28;20032;-70
2022/06/13 03:40:55;;;;;;;18.95;7.05;;;13.80;99.90;;;;;;5038032;28;20048;-69
2022/06/13 03:43:33;;;;;;;18.65;5.97;;;13.70;99.90;;;;;;5038238;28;20029;-69
2022/06/13 03:46:07;;;;;;;13.50;5.45;;;13.70;99.90;;;;;;5038154;28;20052;-69
2022/06/13 03:48:58;;;;;;;12.05;5.45;;;13.80;99.90;;;;;;5020981;28;20547;-69
2022/06/13 03:51:31;;;;;;;12.68;4.75;;;13.90;99.90;;;;;;5037496;28;20534;-69
2022/06/13 03:54:08;;;;;;;9.93;4.47;;;13.80;99.90;;;;;;5054821;28;20040;-69
2022/06/13 03:56:49;;;;;;;12.75;3.72;;;13.80;99.90;;;;;;5037154;28;20041;-69
2022/06/13 03:59:39;;;;;;;10.52;4.03;;;13.80;99.90;;;;;;5037062;28;20060;-69
2022/06/13 04:02:11;;;;;;;11.75;3.90;;;13.60;99.90;;;;;;5037464;28;20041;-69
2022/06/13 04:04:47;;;;;;;12.18;3.47;;;13.90;99.90;;;;;;5055914;28;20060;-69
2022/06/13 04:07:13;;;;;;;9.95;3.33;;;13.90;99.90;;;;;;5037453;28;20045;-69
2022/06/13 04:09:50;;;;;;;8.45;3.10;;;14.00;99.90;;;;;;5037084;28;20037;-69
2022/06/13 04:12:46;;;;;;;5.60;2.80;;;14.10;99.90;;;;;;5047179;28;20059;-69
2022/06/13 04:15:38;;;;;;;10.30;2.75;;;14.00;99.90;;;;;;5031946;28;20037;-69
2022/06/13 04:19:09;;;;;;;6.53;2.75;;;13.90;99.90;;;;;;5022446;28;20064;-69
2022/06/13 04:21:53;;;;;;;11.23;4.40;;;13.80;99.90;;;;;;4956431;28;20452;-69
2022/06/13 04:24:53;;;;;;;8.38;3.13;;;14.10;99.90;;;;;;4966452;28;20037;-67
2022/06/13 04:27:54;;;;;;;5.57;2.33;;;14.30;99.90;;;;;;5015421;28;20525;-67
2022/06/13 04:30:23;;;;;;;8.25;2.50;;;14.00;99.90;;;;;;5010566;28;20053;-68
2022/06/13 04:33:10;;;;;;;11.10;3.22;;;14.00;99.90;;;;;;5008037;28;20038;-68
2022/06/13 04:35:37;;;;;;;11.57;3.22;;;14.20;99.90;;;;;;5014289;28;20042;-69
2022/06/13 04:38:05;;;;;;;9.85;3.00;;;14.00;99.90;;;;;;5022324;28;20045;-69
2022/06/13 04:40:34;;;;;;;8.30;3.33;;;13.90;99.90;;;;;;5023927;28;20056;-68
2022/06/13 04:43:02;;;;;;;10.07;3.17;;;14.10;99.90;;;;;;5023580;28;20047;-68
2022/06/13 04:45:32;;;;;;;7.70;2.80;;;14.10;99.90;;;;;;5021840;28;20102;-68
2022/06/13 04:47:58;;;;;;;6.32;2.88;;;13.90;99.90;;;;;;5018529;28;20052;-69
2022/06/13 04:50:35;;;;;;;4.78;2.60;;;13.90;99.90;;;;;;5022171;28;20037;-69
2022/06/13 04:53:03;;;;;;;9.00;2.75;;;14.20;99.90;;;;;;5011874;28;20052;-67
2022/06/13 04:55:38;;;;;;;5.78;2.53;;;14.00;99.90;;;;;;5007711;28;20092;-67
2022/06/13 04:58:04;;;;;;;9.68;3.38;;;;;;;;;;5003862;28;20527;-67
2022/06/13 05:00:33;;;;;;;11.02;2.38;;;14.40;99.90;;;;;;5009779;28;20122;-67
2022/06/13 05:02:59;;;;;;;9.20;2.97;;;;;;;;;;5018873;28;20109;-68
2022/06/13 05:05:41;;;;;;;7.25;3.00;;;15.10;99.90;;;;;;5018585;28;20045;-70
2022/06/13 05:08:23;;;;;;;6.20;2.63;;;15.50;99.90;;;;;;5006906;28;20053;-69
2022/06/13 05:10:53;;;;;;;7.57;3.03;;;15.90;99.90;;;;;;5017506;28;20380;-69
2022/06/13 05:13:20;;;;;;;10.30;3.05;;;15.80;99.90;;;;;;5010998;28;20045;-69
2022/06/13 05:15:56;;;;;;;7.75;2.72;;;16.30;99.90;;;;;;5005543;28;20049;-69
2022/06/13 05:18:37;;;;;;;7.13;2.72;;;16.70;99.90;;;;;;5039036;28;20052;-71
2022/06/13 05:21:41;;;;;;;8.38;2.75;;;17.30;99.90;;;;;;5013393;28;20041;-71
2022/06/13 05:24:34;;;;;;;10.57;2.80;;;17.30;99.90;;;;;;5016234;28;20045;-68
2022/06/13 05:27:05;;;;;;;6.85;2.42;;;17.10;99.90;;;;;;5030101;28;20044;-70
2022/06/13 05:29:31;;;;;;;7.45;2.15;;;16.80;99.90;;;;;;5045070;28;20036;-70
2022/06/13 05:31:56;;;;;;;6.05;2.30;;;16.70;99.90;;;;;;5035478;28;20089;-70
2022/06/13 05:34:32;;;;;;;8.32;2.75;;;16.50;99.90;;;;;;5020657;28;20056;-70
2022/06/13 05:36:57;;;;;;;5.53;2.63;;;16.30;99.90;;;;;;5016757;28;20567;-70
2022/06/13 05:39:23;;;;;;;6.95;2.22;;;16.20;99.90;;;;;;5014527;28;20114;-72
2022/06/13 05:41:48;;;;;;;5.88;1.90;;;16.30;99.90;;;;;;5012367;28;20136;-70
2022/06/13 05:44:14;;;;;;;7.35;2.33;;;16.40;99.90;;;;;;5028634;28;20412;-70
2022/06/13 05:46:40;;;;;;;8.40;1.90;;;16.60;99.90;;;;;;5010067;28;20688;-70
2022/06/13 05:49:07;;;;;;;8.93;2.00;;;16.90;99.90;;;;;;5028065;28;20454;-70
2022/06/13 05:51:32;;;;;;;6.70;2.35;;;16.60;99.90;;;;;;5011132;28;20048;-70
2022/06/13 05:53:58;;;;;;;8.68;1.90;;;16.40;99.90;;;;;;5009629;28;20422;-69
2022/06/13 05:56:25;;;;;;;5.85;1.90;;;16.60;99.90;;;;;;5012303;28;20055;-70
2022/06/13 05:58:51;;;;;;;5.93;2.35;;;16.30;99.90;;;;;;5029456;28;20561;-69
2022/06/13 06:01:17;;;;;;;5.25;2.20;;;16.20;99.90;;;;;;5014178;28;20333;-69
2022/06/13 06:03:45;;;;;;;7.55;2.50;;;15.80;99.90;;;;;;5014159;28;20945;-69
2022/06/13 06:06:25;;;;;;;5.05;1.50;;;15.80;99.90;;;;;;5031409;28;20041;-69
2022/06/13 06:08:54;;;;;;;6.53;1.40;;;15.90;99.90;;;;;;5013061;28;20044;-69
2022/06/13 06:11:20;;;;;;;11.18;1.75;;;15.50;99.90;;;;;;5031867;28;20056;-69
2022/06/13 06:13:46;;;;;;;5.93;1.40;;;15.40;99.90;;;;;;5031816;28;20053;-69
2022/06/13 06:16:18;;;;;;;8.70;1.90;;;15.30;99.90;;;;;;5030960;28;20576;-69
2022/06/13 06:18:44;;;;;;;9.68;2.40;;;15.20;99.90;;;;;;5012643;28;20052;-68
2022/06/13 06:21:09;;;;;;;5.60;1.40;;;15.30;99.90;;;;;;5013961;28;20041;-70
2022/06/13 06:23:35;;;;;;;3.60;1.30;;;15.20;99.90;;;;;;5030619;28;20044;-70
2022/06/13 06:26:01;;;;;;;5.15;1.48;;;15.30;99.90;;;;;;5032984;28;20041;-70
2022/06/13 06:28:27;;;;;;;4.50;1.63;;;15.30;99.90;;;;;;5033220;28;20507;-70
2022/06/13 06:30:56;;;;;;;5.47;1.52;;;15.20;99.90;;;;;;5034638;28;20476;-70
2022/06/13 06:33:23;;;;;;;6.82;1.52;;;15.30;99.90;;;;;;5032856;28;20045;-70
2022/06/13 06:35:49;;;;;;;3.30;1.40;;;15.20;99.90;;;;;;5015048;28;20059;-70
2022/06/13 06:38:15;;;;;;;11.13;1.85;;;15.30;99.90;;;;;;5014862;28;20071;-70
2022/06/13 06:40:41;;;;;;;4.55;1.63;;;15.10;99.90;;;;;;5015585;28;20045;-70
2022/06/13 06:43:06;;;;;;;4.38;1.48;;;15.00;99.90;;;;;;5032889;28;20044;-71
2022/06/13 06:45:32;;;;;;;4.32;1.55;;;;;;;;;;5017503;28;20037;-71
2022/06/13 06:47:58;;;;;;;7.53;1.38;;;14.90;99.90;;;;;;5002673;28;20060;-69
2022/06/13 06:50:33;;;;;;;7.50;1.25;;;14.80;99.90;;;;;;5035626;28;20127;-68
2022/06/13 06:52:59;;;;;;;3.15;1.00;;;;;;;;;;5030770;28;20502;-69
2022/06/13 07:00:57;;;;;;;5.38;1.33;;;14.70;99.90;;;;;;5033675;28;20450;-69
2022/06/13 07:03:23;;;;;;;2.95;1.40;;;14.70;99.90;;;;;;5037137;28;20041;-69
2022/06/13 07:05:51;;;;;;;5.35;1.63;;;;;;;;;;5036200;28;20094;-69
2022/06/13 07:08:16;;;;;;;5.32;1.48;;;14.80;99.90;;;;;;5017952;28;20053;-69
2022/06/13 07:10:45;;;;;;;4.10;1.42;;;15.00;99.90;;;;;;5035573;28;20079;-69
2022/06/13 07:13:12;;;;;;;8.43;1.48;;;15.20;99.90;;;;;;5036037;28;20045;-69
2022/06/13 07:15:38;;;;;;;4.65;1.20;;;15.30;99.90;;;;;;5015480;28;20574;-69
2022/06/13 07:18:03;;;;;;;4.93;1.27;;;15.40;99.90;;;;;;5033654;28;20053;-68
2022/06/13 07:20:29;;;;;;;3.30;1.83;;;15.50;99.90;;;;;;5016329;28;20041;-69
2022/06/13 07:22:54;;;;;;;4.82;1.48;;;15.60;99.90;;;;;;5017958;28;20048;-69
2022/06/13 07:25:25;;;;;;;6.00;1.58;;;15.70;99.90;;;;;;5017191;28;20060;-68
2022/06/13 07:27:51;;;;;;;7.72;1.55;;;15.70;99.90;;;;;;5018679;28;20048;-69
2022/06/13 07:30:19;;;;;;;6.95;1.27;;;15.50;99.90;;;;;;5036282;28;20095;-71
2022/06/13 07:32:45;;;;;;;4.20;1.13;;;15.60;99.90;;;;;;5036062;28;20159;-70
2022/06/13 07:35:14;;;;;;;5.40;1.60;;;15.50;99.90;;;;;;5017359;28;20044;-70
2022/06/13 07:40:25;;;;;;;8.95;1.70;;;17.50;99.90;;;;;;5017223;28;20052;-69
2022/06/13 07:42:53;;;;;;;5.13;1.63;;;15.60;99.90;;;;;;5033953;28;20052;-69
2022/06/13 07:45:25;;;;;;;9.18;1.83;;;15.60;99.90;;;;;;5011732;28;20549;-69
2022/06/13 07:47:52;;;;;;;7.40;1.60;;;15.70;99.90;;;;;;5026512;28;20096;-73
2022/06/13 07:50:20;;;;;;;5.88;1.73;;;15.60;99.90;;;;;;5008944;28;20045;-73
2022/06/13 07:52:53;;;;;;;4.07;1.10;;;15.80;99.90;;;;;;5010968;28;20064;-74
2022/06/13 07:55:19;;;;;;;6.28;1.35;;;15.70;99.90;;;;;;5030412;28;20521;-72
2022/06/13 07:57:46;;;;;;;6.40;1.42;;;15.60;99.90;;;;;;5013846;28;20076;-71
2022/06/13 08:00:25;;;;;;;5.85;1.55;;;15.80;99.90;;;;;;4999570;28;20037;-72
2022/06/13 08:02:51;;;;;;;5.88;1.38;;;15.80;99.90;;;;;;5016977;28;20045;-72
2022/06/13 08:05:17;;;;;;;2.55;1.08;;;16.70;99.90;;;;;;5015733;28;20127;-69
2022/06/13 08:07:42;;;;;;;9.25;1.20;;;16.00;99.90;;;;;;5007719;28;20068;-68
2022/06/13 08:10:09;;;;;;;6.53;1.30;;;16.10;99.90;;;;;;4998868;28;20947;-70
2022/06/13 08:12:34;;;;;;;8.27;1.13;;;16.10;99.90;;;;;;5015810;28;20052;-69
2022/06/13 08:15:00;;;;;;;6.50;1.27;;;16.00;99.90;;;;;;5015295;28;20057;-68
2022/06/13 08:17:26;;;;;;;5.70;1.15;;;16.20;99.90;;;;;;5015620;28;20056;-66
2022/06/13 08:19:51;;;;;;;6.32;1.90;;;16.00;99.90;;;;;;5015485;28;20049;-69
2022/06/13 08:22:18;;;;;;;5.95;1.13;;;16.00;99.90;;;;;;5034999;28;20041;-68
2022/06/13 08:24:44;;;;;;;4.18;1.27;;;16.00;99.90;;;;;;5015347;28;20045;-72
2022/06/13 08:27:10;;;;;;;4.80;0.98;;;15.90;99.90;;;;;;5014408;28;20458;-71
2022/06/13 08:29:35;;;;;;;4.85;1.02;;;16.00;99.90;;;;;;5016040;28;20040;-71
2022/06/13 08:32:02;;;;;;;5.20;1.45;;;15.90;99.90;;;;;;5016681;28;20087;-69
2022/06/13 08:34:28;;;;;;;6.32;1.50;;;16.10;99.90;;;;;;5017140;28;21033;-70
2022/06/13 08:36:53;;;;;;;6.63;1.42;;;16.20;99.90;;;;;;5016741;28;20091;-70
2022/06/13 08:43:28;;;;;;;5.30;1.10;;;16.30;99.90;;;;;;5032412;28;20407;-70
2022/06/13 08:46:07;;;;;;;6.68;1.23;;;16.30;99.90;;;;;;5016920;28;20472;-70
2022/06/13 08:48:41;;;;;;;8.68;1.20;;;16.40;99.90;;;;;;5014275;28;20364;-70
2022/06/13 08:51:18;;;;;;;4.68;1.10;;;16.50;99.90;;;;;;5014593;28;20467;-70
2022/06/13 08:53:55;;;;;;;5.82;1.15;;;16.40;99.90;;;;;;5013172;28;20395;-71
2022/06/13 08:56:24;;;;;;;6.05;1.05;;;16.40;99.90;;;;;;5033212;28;20562;-72
2022/06/13 08:58:57;;;;;;;4.18;0.98;;;16.50;99.90;;;;;;5012652;28;20076;-72
2022/06/13 09:01:38;;;;;;;3.90;1.38;;;16.80;99.90;;;;;;5014374;28;20178;-71
2022/06/13 09:04:31;;;;;;;4.95;1.02;;;16.60;99.90;;;;;;5015566;28;20076;-71
2022/06/13 09:07:08;;;;;;;3.42;0.90;;;16.90;99.90;;;;;;5019154;28;20419;-67
2022/06/13 09:09:49;;;;;;;6.82;1.48;;;16.60;99.90;;;;;;5014198;28;20056;-66
2022/06/13 09:12:32;;;;;;;4.80;0.70;;;16.80;99.90;;;;;;5016222;28;20053;-68
2022/06/13 09:15:09;;;;;;;6.47;1.30;;;17.10;99.90;;;;;;5032817;28;20065;-67
2022/06/13 09:17:54;;;;;;;7.50;0.88;;;17.00;99.90;;;;;;5030816;28;20786;-68
2022/06/13 09:20:33;;;;;;;11.23;1.27;;;16.70;99.90;;;;;;5036739;28;20045;-68
2022/06/13 09:23:09;;;;;;;5.93;1.15;;;16.70;99.90;;;;;;5032792;28;20116;-68
2022/06/13 09:25:45;;;;;;;8.57;1.65;;;16.70;99.90;;;;;;5031908;28;20560;-70
2022/06/13 09:28:47;;;;;;;5.32;1.20;;;16.70;99.90;;;;;;5013578;28;20912;-70
2022/06/13 09:31:25;;;;;;;5.53;1.23;;;17.00;99.90;;;;;;5008979;28;20049;-69
2022/06/13 09:34:25;;;;;;;5.53;1.13;;;17.30;99.90;;;;;;5011080;28;20086;-69
2022/06/13 09:37:04;;;;;;;8.65;1.10;;;17.10;99.90;;;;;;4989981;28;20164;-70
2022/06/13 09:39:30;;;;;;;5.32;1.00;;;17.10;99.90;;;;;;5009661;28;20059;-71
2022/06/13 09:42:14;;;;;;;6.03;1.10;;;17.30;99.90;;;;;;5011737;28;20088;-69
2022/06/13 09:44:58;;;;;;;6.00;1.10;;;17.20;99.90;;;;;;5029581;28;20049;-68
2022/06/13 09:47:40;;;;;;;5.90;1.20;;;17.30;99.90;;;;;;5032621;28;20243;-69
2022/06/13 09:50:33;;;;;;;11.48;1.15;;;17.50;99.90;;;;;;5013651;28;20056;-69
2022/06/13 09:53:39;;;;;;;5.20;1.10;;;17.60;99.90;;;;;;4968380;28;20470;-70
2022/06/13 09:56:15;;;;;;;;;;;17.60;99.90;;;;;;4976246;28;20080;-69
2022/06/13 09:59:16;;;;;;;9.23;1.83;;;17.30;99.90;;;;;;5013686;28;20412;-69
2022/06/13 10:01:52;;;;;;;9.57;1.17;;;17.30;99.90;;;;;;4915632;29;20055;-68
2022/06/13 10:04:26;;;;;;;10.25;1.38;;;17.40;99.90;;;;;;4997507;28;20456;-70
2022/06/13 10:07:39;;;;;;;9.40;1.40;;;17.00;99.90;;;;;;5028897;28;20053;-69
2022/06/13 10:10:10;;;;;;;7.45;1.10;;;17.40;99.90;;;;;;5026334;28;20543;-69
2022/06/13 10:12:54;;;;;;;6.20;1.33;;;17.80;99.90;;;;;;5012766;28;20057;-71
2022/06/13 10:15:53;;;;;;;12.38;1.65;;;17.70;99.90;;;;;;5031117;28;20532;-72
2022/06/13 10:18:35;;;;;;;6.53;1.65;;;17.70;99.90;;;;;;5012016;28;20590;-70
2022/06/13 10:21:11;;;;;;;9.38;1.27;;;18.00;99.90;;;;;;5013920;28;20058;-70
2022/06/13 10:23:55;;;;;;;9.30;1.20;;;19.70;99.90;;;;;;5015124;28;20401;-70
2022/06/13 10:26:44;;;;;;;5.05;0.90;;;18.30;99.90;;;;;;5013996;28;20045;-70
2022/06/13 10:29:24;;;;;;;6.32;1.50;;;18.30;99.90;;;;;;5014094;28;20180;-71
2022/06/13 10:32:18;;;;;;;7.82;1.65;;;18.10;99.90;;;;;;5014573;28;20052;-69
2022/06/13 10:34:53;;;;;;;10.70;1.65;;;18.60;99.90;;;;;;5003617;28;20072;-69
2022/06/13 10:37:25;;;;;;;5.70;0.95;;;18.00;99.90;;;;;;5013961;28;20053;-71
2022/06/13 10:39:55;;;;;;;7.28;1.42;;;17.90;99.90;;;;;;5016539;28;20053;-70
2022/06/13 10:42:26;;;;;;;7.38;1.10;;;18.10;99.90;;;;;;5014376;28;20137;-70
2022/06/13 10:44:52;;;;;;;4.45;1.08;;;18.10;99.90;;;;;;5014982;28;20049;-70
2022/06/13 10:48:04;;;;;;;7.03;1.25;;;17.70;99.90;;;;;;5014765;28;20045;-70
2022/06/13 10:50:38;;;;;;;5.07;1.20;;;17.70;99.90;;;;;;5014465;28;20045;-70
2022/06/13 10:53:07;;;;;;;;;;;17.40;99.90;;;;;;5014990;28;20080;-71
2022/06/13 10:55:41;;;;;;;8.85;1.90;;;17.30;99.90;;;;;;5014017;28;20307;-70
2022/06/13 10:58:18;;;;;;;5.75;1.60;;;17.50;99.90;;;;;;5013106;28;20048;-71
2022/06/13 11:01:09;;;;;;;9.75;1.50;;;17.60;99.90;;;;;;5012887;28;20048;-70
2022/06/13 11:03:36;;;;;;;8.60;1.27;;;17.30;99.90;;;;;;5012436;28;20551;-71
2022/06/13 11:06:05;;;;;;;5.75;1.42;;;17.80;99.90;;;;;;5011940;28;20458;-70
2022/06/13 11:08:31;;;;;;;3.60;1.20;;;17.80;99.90;;;;;;5010903;28;20056;-71
2022/06/13 11:10:59;;;;;;;4.18;1.08;;;17.90;99.90;;;;;;5010505;28;20084;-70
2022/06/13 11:13:52;;;;;;;9.23;1.10;;;20.30;99.90;;;;;;5011124;28;20135;-72
2022/06/13 11:22:37;;;;;;;6.88;1.50;;;18.40;99.90;;;;;;5015738;28;20053;-72
2022/06/13 11:25:25;;;;;;;6.47;1.00;;;18.70;99.90;;;;;;5014519;28;20044;-72
2022/06/13 11:28:11;;;;;;;5.88;1.20;;;18.30;99.90;;;;;;5015285;28;20048;-72
2022/06/13 11:30:41;;;;;;;5.78;1.17;;;18.90;99.90;;;;;;5013107;28;20300;-73
2022/06/13 11:33:10;;;;;;;8.05;1.27;;;18.70;99.90;;;;;;5014056;28;20624;-73
2022/06/13 11:36:01;;;;;;;5.55;1.30;;;18.90;99.90;;;;;;5015130;28;20064;-72
2022/06/13 11:38:29;;;;;;;10.10;1.25;;;18.60;99.90;;;;;;5014595;28;20045;-72
2022/06/13 11:41:05;;;;;;;8.30;0.82;;;18.90;99.90;;;;;;5014700;28;20400;-72
2022/06/13 11:43:42;;;;;;;6.00;0.98;;;18.50;99.90;;;;;;5014051;28;20134;-70
2022/06/13 11:46:30;;;;;;;4.03;0.90;;;18.40;99.90;;;;;;5014010;28;20106;-71
2022/06/13 11:49:00;;;;;;;6.13;1.38;;;18.60;99.90;;;;;;5032969;28;20056;-72
2022/06/13 11:51:29;;;;;;;7.82;1.35;;;20.60;99.90;;;;;;5012945;28;20059;-73
2022/06/13 11:53:58;;;;;;;5.07;1.55;;;18.60;99.90;;;;;;5013407;28;20497;-74
2022/06/13 11:56:31;;;;;;;8.68;1.40;;;18.40;99.90;;;;;;5031380;28;20406;-72
2022/06/13 11:59:01;;;;;;;6.82;1.38;;;18.60;99.90;;;;;;5013292;28;20518;-73
2022/06/13 12:01:27;;;;;;;5.35;1.25;;;18.70;99.90;;;;;;5013512;28;20055;-72
2022/06/13 12:04:01;;;;;;;9.55;1.98;;;18.90;99.90;;;;;;5031434;28;20445;-71
2022/06/13 12:06:31;;;;;;;5.83;1.43;;;18.70;99.90;;;;;;5031611;28;20047;-71
2022/06/13 12:09:34;;;;;;;7.60;1.15;;;18.80;99.90;;;;;;5013870;28;22729;-71
2022/06/13 12:12:04;;;;;;;9.73;1.00;;;18.80;99.90;;;;;;5014046;28;20064;-70
2022/06/13 12:14:49;;;;;;;4.97;1.52;;;18.90;99.90;;;;;;5013367;28;20075;-70
2022/06/13 12:17:32;;;;;;;5.63;1.15;;;18.70;99.90;;;;;;5012857;28;20519;-71
2022/06/13 12:20:04;;;;;;;4.78;1.08;;;18.50;99.90;;;;;;5031099;28;20505;-72
2022/06/13 12:22:56;;;;;;;13.25;1.30;;;18.60;99.90;;;;;;5032143;28;20041;-71
2022/06/13 12:25:47;;;;;;;9.73;1.33;;;18.40;99.90;;;;;;5016103;28;20045;-71
2022/06/13 12:28:17;;;;;;;10.02;1.23;;;18.50;99.90;;;;;;5032445;28;20139;-71
2022/06/13 12:31:16;;;;;;;4.95;1.05;;;18.60;99.90;;;;;;5014029;28;20057;-72
2022/06/13 12:33:58;;;;;;;12.02;1.25;;;18.90;99.90;;;;;;5032246;28;20051;-71
2022/06/13 12:36:44;;;;;;;6.93;1.75;;;18.20;99.90;;;;;;5032138;28;20064;-71
2022/06/13 12:39:29;;;;;;;8.02;1.58;;;18.20;99.90;;;;;;5013542;28;20084;-71
2022/06/13 12:42:10;;;;;;;6.10;0.80;;;17.70;99.90;;;;;;5014571;28;20052;-70
2022/06/13 12:44:57;;;;;;;6.70;1.20;;;17.90;99.90;;;;;;5013499;28;20037;-72
2022/06/13 12:47:31;;;;;;;8.50;1.48;;;17.70;99.90;;;;;;5012902;28;20048;-71
2022/06/13 12:50:26;;;;;;;10.18;1.40;;;17.70;99.90;;;;;;5015212;28;20045;-71
2022/06/13 12:53:08;;;;;;;8.13;1.33;;;17.60;99.90;;;;;;5033200;28;20064;-71
2022/06/13 12:55:46;;;;;;;7.60;2.22;;;17.80;99.90;;;;;;5014755;28;20049;-70
2022/06/13 12:58:23;;;;;;;8.15;1.20;;;17.50;99.90;;;;;;5030245;28;20045;-72
2022/06/13 13:01:02;;;;;;;7.55;1.45;;;17.70;99.90;;;;;;5001268;28;20059;-72
2022/06/13 13:03:47;;;;;;;4.78;1.05;;;17.60;99.90;;;;;;5013120;28;20154;-71
2022/06/13 13:06:36;;;;;;;10.20;1.30;;;17.70;99.90;;;;;;5032107;28;20041;-72
2022/06/13 13:09:09;;;;;;;6.43;1.05;;;17.60;99.90;;;;;;5013317;28;20558;-70
2022/06/13 13:11:52;;;;;;;7.32;1.40;;;17.50;99.90;;;;;;5029162;28;20119;-69
2022/06/13 13:14:39;;;;;;;9.98;1.23;;;17.90;99.90;;;;;;5029613;28;20306;-67
2022/06/13 13:17:20;;;;;;;7.18;1.52;;;17.70;99.90;;;;;;5010730;28;20590;-66
2022/06/13 13:19:46;;;;;;;5.93;1.45;;;17.80;99.90;;;;;;5011207;28;20071;-67
2022/06/13 13:22:17;;;;;;;9.57;1.48;;;18.10;99.90;;;;;;5028057;28;20820;-67
2022/06/13 13:25:15;;;;;;;5.20;1.10;;;18.20;99.90;;;;;;5011206;28;20407;-67
2022/06/13 13:28:21;;;;;;;4.53;0.80;;;18.40;99.90;;;;;;5028086;28;20045;-67
2022/06/13 13:31:23;;;;;;;5.80;1.55;;;18.50;99.90;;;;;;5006226;28;20045;-69
2022/06/13 13:34:16;;;;;;;9.40;2.08;;;18.80;99.90;;;;;;5007190;28;20072;-69
2022/06/13 13:37:01;;;;;;;6.63;1.40;;;18.90;99.90;;;;;;5006789;28;20041;-70
2022/06/13 13:39:55;;;;;;;8.88;1.50;;;18.70;99.90;;;;;;5023606;28;20045;-69
2022/06/13 13:42:44;;;;;;;6.93;1.30;;;18.40;99.90;;;;;;5005437;28;20704;-69
2022/06/13 13:45:28;;;;;;;7.30;1.23;;;18.30;99.90;;;;;;5022570;28;20483;-68
2022/06/13 13:48:01;;;;;;;8.07;0.93;;;18.10;99.90;;;;;;5024526;28;20091;-68
2022/06/13 13:50:32;;;;;;;4.65;1.15;;;20.00;99.90;;;;;;5024328;28;20127;-67
2022/06/13 13:53:04;;;;;;;6.30;1.17;;;18.40;99.90;;;;;;5023323;28;20669;-67
2022/06/13 13:56:07;;;;;;;13.93;1.45;;;18.10;99.90;;;;;;5004231;28;20047;-67
2022/06/13 13:58:34;;;;;;;5.38;1.10;;;18.00;99.90;;;;;;5005893;28;20084;-66
2022/06/13 14:01:22;;;;;;;5.47;1.17;;;18.30;99.90;;;;;;5023031;28;20047;-66
2022/06/13 14:04:10;;;;;;;6.95;1.25;;;18.00;99.90;;;;;;5024515;28;20052;-67
2022/06/13 14:07:00;;;;;;;6.22;1.13;;;18.10;99.90;;;;;;5005863;28;20252;-67
2022/06/13 14:09:26;;;;;;;5.78;1.70;;;18.30;99.90;;;;;;5007612;28;20139;-67